sensor_id;sensor_type;location;lat;lon;timestamp;temperature;humidity
32506;DHT22;18955;51.224;8.482;2023-08-20T00:01:55;20.00;87.40
32506;DHT22;18955;51.224;8.482;2023-08-20T00:04:24;20.00;87.50
32506;DHT22;18955;51.224;8.482;2023-08-20T00:06:51;19.90;87.40
32506;DHT22;18955;51.224;8.482;2023-08-20T00:09:18;19.90;87.30
32506;DHT22;18955;51.224;8.482;2023-08-20T00:11:44;19.90;87.30
32506;DHT22;18955;51.224;8.482;2023-08-20T00:14:17;19.90;87.50
32506;DHT22;18955;51.224;8.482;2023-08-20T00:16:44;19.90;87.40
32506;DHT22;18955;51.224;8.482;2023-08-20T00:19:10;19.80;87.30
32506;DHT22;18955;51.224;8.482;2023-08-20T00:21:43;19.80;87.30
32506;DHT22;18955;51.224;8.482;2023-08-20T00:24:11;19.80;87.30
32506;DHT22;18955;51.224;8.482;2023-08-20T00:26:37;19.80;87.30
32506;DHT22;18955;51.224;8.482;2023-08-20T00:29:04;19.70;87.30
32506;DHT22;18955;51.224;8.482;2023-08-20T00:31:30;19.70;87.30
32506;DHT22;18955;51.224;8.482;2023-08-20T00:33:56;19.70;87.30
32506;DHT22;18955;51.224;8.482;2023-08-20T00:36:22;19.70;87.30
32506;DHT22;18955;51.224;8.482;2023-08-20T00:38:49;19.70;87.20
32506;DHT22;18955;51.224;8.482;2023-08-20T00:41:15;19.60;87.20
32506;DHT22;18955;51.224;8.482;2023-08-20T00:43:41;19.60;87.20
32506;DHT22;18955;51.224;8.482;2023-08-20T00:46:07;19.60;87.20
32506;DHT22;18955;51.224;8.482;2023-08-20T00:48:34;19.60;87.30
32506;DHT22;18955;51.224;8.482;2023-08-20T00:51:00;19.50;87.30
32506;DHT22;18955;51.224;8.482;2023-08-20T00:53:26;19.50;87.20
32506;DHT22;18955;51.224;8.482;2023-08-20T00:55:53;19.50;87.20
32506;DHT22;18955;51.224;8.482;2023-08-20T00:58:19;19.50;87.10
32506;DHT22;18955;51.224;8.482;2023-08-20T01:00:45;19.50;87.10
32506;DHT22;18955;51.224;8.482;2023-08-20T01:03:11;19.40;87.00
32506;DHT22;18955;51.224;8.482;2023-08-20T01:05:50;19.40;87.00
32506;DHT22;18955;51.224;8.482;2023-08-20T01:08:29;19.40;87.10
32506;DHT22;18955;51.224;8.482;2023-08-20T01:11:16;19.30;87.00
32506;DHT22;18955;51.224;8.482;2023-08-20T01:13:43;19.30;87.10
32506;DHT22;18955;51.224;8.482;2023-08-20T01:16:09;19.30;87.00
32506;DHT22;18955;51.224;8.482;2023-08-20T01:18:35;19.30;87.00
32506;DHT22;18955;51.224;8.482;2023-08-20T01:21:06;19.30;87.00
32506;DHT22;18955;51.224;8.482;2023-08-20T01:23:57;19.30;87.00
32506;DHT22;18955;51.224;8.482;2023-08-20T01:26:54;19.20;87.00
32506;DHT22;18955;51.224;8.482;2023-08-20T01:29:22;19.20;87.10
32506;DHT22;18955;51.224;8.482;2023-08-20T01:31:48;19.20;87.10
32506;DHT22;18955;51.224;8.482;2023-08-20T01:34:15;19.20;87.00
32506;DHT22;18955;51.224;8.482;2023-08-20T01:36:41;19.20;87.00
32506;DHT22;18955;51.224;8.482;2023-08-20T01:39:10;19.10;87.00
32506;DHT22;18955;51.224;8.482;2023-08-20T01:41:36;19.10;87.00
32506;DHT22;18955;51.224;8.482;2023-08-20T01:44:03;19.10;87.00
32506;DHT22;18955;51.224;8.482;2023-08-20T01:46:29;19.00;86.90
32506;DHT22;18955;51.224;8.482;2023-08-20T01:48:55;19.00;87.00
32506;DHT22;18955;51.224;8.482;2023-08-20T01:51:22;19.00;87.00
32506;DHT22;18955;51.224;8.482;2023-08-20T01:53:48;19.00;87.10
32506;DHT22;18955;51.224;8.482;2023-08-20T01:56:14;19.00;87.10
32506;DHT22;18955;51.224;8.482;2023-08-20T01:58:40;18.90;87.00
32506;DHT22;18955;51.224;8.482;2023-08-20T02:01:07;19.00;87.10
32506;DHT22;18955;51.224;8.482;2023-08-20T02:03:36;18.90;87.10
32506;DHT22;18955;51.224;8.482;2023-08-20T02:06:02;18.90;87.10
32506;DHT22;18955;51.224;8.482;2023-08-20T02:08:29;18.90;87.20
32506;DHT22;18955;51.224;8.482;2023-08-20T02:11:02;18.90;87.10
32506;DHT22;18955;51.224;8.482;2023-08-20T02:13:29;18.80;87.10
32506;DHT22;18955;51.224;8.482;2023-08-20T02:16:03;18.80;87.00
32506;DHT22;18955;51.224;8.482;2023-08-20T02:18:30;18.80;87.00
32506;DHT22;18955;51.224;8.482;2023-08-20T02:20:57;18.80;87.00
32506;DHT22;18955;51.224;8.482;2023-08-20T02:23:23;18.80;87.10
32506;DHT22;18955;51.224;8.482;2023-08-20T02:25:51;18.70;87.10
32506;DHT22;18955;51.224;8.482;2023-08-20T02:28:17;18.70;87.10
32506;DHT22;18955;51.224;8.482;2023-08-20T02:30:46;18.70;87.10
32506;DHT22;18955;51.224;8.482;2023-08-20T02:33:13;18.70;87.10
32506;DHT22;18955;51.224;8.482;2023-08-20T02:35:39;18.70;87.10
32506;DHT22;18955;51.224;8.482;2023-08-20T02:38:06;18.70;87.20
32506;DHT22;18955;51.224;8.482;2023-08-20T02:40:33;18.60;87.10
32506;DHT22;18955;51.224;8.482;2023-08-20T02:43:06;18.60;87.10
32506;DHT22;18955;51.224;8.482;2023-08-20T02:45:33;18.60;87.20
32506;DHT22;18955;51.224;8.482;2023-08-20T02:48:00;18.60;87.20
32506;DHT22;18955;51.224;8.482;2023-08-20T02:50:26;18.60;87.30
32506;DHT22;18955;51.224;8.482;2023-08-20T02:52:52;18.50;87.20
32506;DHT22;18955;51.224;8.482;2023-08-20T02:55:19;18.50;87.20
32506;DHT22;18955;51.224;8.482;2023-08-20T02:57:45;18.50;87.10
32506;DHT22;18955;51.224;8.482;2023-08-20T03:00:11;18.50;87.10
32506;DHT22;18955;51.224;8.482;2023-08-20T03:02:39;18.50;87.20
32506;DHT22;18955;51.224;8.482;2023-08-20T03:05:10;18.50;87.20
32506;DHT22;18955;51.224;8.482;2023-08-20T03:07:36;18.40;87.20
32506;DHT22;18955;51.224;8.482;2023-08-20T03:10:03;18.40;87.20
32506;DHT22;18955;51.224;8.482;2023-08-20T03:12:30;18.40;87.20
32506;DHT22;18955;51.224;8.482;2023-08-20T03:14:56;18.40;87.10
32506;DHT22;18955;51.224;8.482;2023-08-20T03:17:22;18.40;87.10
32506;DHT22;18955;51.224;8.482;2023-08-20T03:20:00;18.40;87.20
32506;DHT22;18955;51.224;8.482;2023-08-20T03:22:27;18.40;87.20
32506;DHT22;18955;51.224;8.482;2023-08-20T03:24:53;18.30;87.10
32506;DHT22;18955;51.224;8.482;2023-08-20T03:27:19;18.30;87.20
32506;DHT22;18955;51.224;8.482;2023-08-20T03:29:46;18.30;87.20
32506;DHT22;18955;51.224;8.482;2023-08-20T03:32:12;18.30;87.20
32506;DHT22;18955;51.224;8.482;2023-08-20T03:34:39;18.20;87.10
32506;DHT22;18955;51.224;8.482;2023-08-20T03:37:05;18.20;87.10
32506;DHT22;18955;51.224;8.482;2023-08-20T03:39:31;18.20;87.10
32506;DHT22;18955;51.224;8.482;2023-08-20T03:41:59;18.20;87.00
32506;DHT22;18955;51.224;8.482;2023-08-20T03:44:25;18.20;87.10
32506;DHT22;18955;51.224;8.482;2023-08-20T03:46:52;18.20;87.10
32506;DHT22;18955;51.224;8.482;2023-08-20T03:49:18;18.20;87.30
32506;DHT22;18955;51.224;8.482;2023-08-20T03:51:44;18.10;87.20
32506;DHT22;18955;51.224;8.482;2023-08-20T03:54:10;18.10;87.20
32506;DHT22;18955;51.224;8.482;2023-08-20T03:56:37;18.10;87.10
32506;DHT22;18955;51.224;8.482;2023-08-20T03:59:03;18.10;87.10
32506;DHT22;18955;51.224;8.482;2023-08-20T04:01:30;18.10;87.10
32506;DHT22;18955;51.224;8.482;2023-08-20T04:03:56;18.10;87.20
32506;DHT22;18955;51.224;8.482;2023-08-20T04:06:22;18.00;87.10
32506;DHT22;18955;51.224;8.482;2023-08-20T04:08:48;18.00;87.10
32506;DHT22;18955;51.224;8.482;2023-08-20T04:11:15;18.00;87.20
32506;DHT22;18955;51.224;8.482;2023-08-20T04:13:42;18.00;87.20
32506;DHT22;18955;51.224;8.482;2023-08-20T04:16:10;17.90;87.10
32506;DHT22;18955;51.224;8.482;2023-08-20T04:18:36;17.90;87.20
32506;DHT22;18955;51.224;8.482;2023-08-20T04:21:02;17.90;87.20
32506;DHT22;18955;51.224;8.482;2023-08-20T04:23:29;17.90;87.20
32506;DHT22;18955;51.224;8.482;2023-08-20T04:25:55;17.90;87.30
32506;DHT22;18955;51.224;8.482;2023-08-20T04:28:21;17.90;87.40
32506;DHT22;18955;51.224;8.482;2023-08-20T04:30:47;17.80;87.40
32506;DHT22;18955;51.224;8.482;2023-08-20T04:33:15;17.80;87.40
32506;DHT22;18955;51.224;8.482;2023-08-20T04:35:44;17.80;87.50
32506;DHT22;18955;51.224;8.482;2023-08-20T04:38:11;17.80;87.50
32506;DHT22;18955;51.224;8.482;2023-08-20T04:40:37;17.80;87.50
32506;DHT22;18955;51.224;8.482;2023-08-20T04:43:05;17.80;87.60
32506;DHT22;18955;51.224;8.482;2023-08-20T04:45:31;17.80;87.50
32506;DHT22;18955;51.224;8.482;2023-08-20T04:47:57;17.70;87.60
32506;DHT22;18955;51.224;8.482;2023-08-20T04:50:24;17.70;87.60
32506;DHT22;18955;51.224;8.482;2023-08-20T04:52:50;17.70;87.50
32506;DHT22;18955;51.224;8.482;2023-08-20T04:55:16;17.70;87.70
32506;DHT22;18955;51.224;8.482;2023-08-20T04:57:43;17.70;87.60
32506;DHT22;18955;51.224;8.482;2023-08-20T05:00:11;17.70;87.60
32506;DHT22;18955;51.224;8.482;2023-08-20T05:02:44;17.70;87.70
32506;DHT22;18955;51.224;8.482;2023-08-20T05:05:14;17.70;87.80
32506;DHT22;18955;51.224;8.482;2023-08-20T05:07:40;17.70;87.90
32506;DHT22;18955;51.224;8.482;2023-08-20T05:10:09;17.60;87.90
32506;DHT22;18955;51.224;8.482;2023-08-20T05:12:36;17.60;87.80
32506;DHT22;18955;51.224;8.482;2023-08-20T05:15:03;17.60;87.90
32506;DHT22;18955;51.224;8.482;2023-08-20T05:17:30;17.60;88.00
32506;DHT22;18955;51.224;8.482;2023-08-20T05:19:57;17.60;88.00
32506;DHT22;18955;51.224;8.482;2023-08-20T05:22:24;17.60;88.10
32506;DHT22;18955;51.224;8.482;2023-08-20T05:24:50;17.60;88.10
32506;DHT22;18955;51.224;8.482;2023-08-20T05:27:17;17.60;88.20
32506;DHT22;18955;51.224;8.482;2023-08-20T05:29:46;17.50;88.20
32506;DHT22;18955;51.224;8.482;2023-08-20T05:32:14;17.50;88.10
32506;DHT22;18955;51.224;8.482;2023-08-20T05:34:42;17.50;88.20
32506;DHT22;18955;51.224;8.482;2023-08-20T05:37:09;17.50;88.20
32506;DHT22;18955;51.224;8.482;2023-08-20T05:39:41;17.50;88.20
32506;DHT22;18955;51.224;8.482;2023-08-20T05:42:08;17.50;88.20
32506;DHT22;18955;51.224;8.482;2023-08-20T05:44:34;17.50;88.30
32506;DHT22;18955;51.224;8.482;2023-08-20T05:47:02;17.50;88.40
32506;DHT22;18955;51.224;8.482;2023-08-20T05:49:28;17.50;88.40
32506;DHT22;18955;51.224;8.482;2023-08-20T05:51:56;17.50;88.50
32506;DHT22;18955;51.224;8.482;2023-08-20T05:54:22;17.40;88.50
32506;DHT22;18955;51.224;8.482;2023-08-20T05:56:51;17.40;88.30
32506;DHT22;18955;51.224;8.482;2023-08-20T05:59:18;17.50;88.50
32506;DHT22;18955;51.224;8.482;2023-08-20T06:01:44;17.40;88.60
32506;DHT22;18955;51.224;8.482;2023-08-20T06:04:10;17.40;88.40
32506;DHT22;18955;51.224;8.482;2023-08-20T06:06:36;17.40;88.50
32506;DHT22;18955;51.224;8.482;2023-08-20T06:09:03;17.40;88.60
32506;DHT22;18955;51.224;8.482;2023-08-20T06:11:29;17.40;88.60
32506;DHT22;18955;51.224;8.482;2023-08-20T06:13:55;17.40;88.60
32506;DHT22;18955;51.224;8.482;2023-08-20T06:16:21;17.40;88.40
32506;DHT22;18955;51.224;8.482;2023-08-20T06:18:47;17.40;88.50
32506;DHT22;18955;51.224;8.482;2023-08-20T06:21:13;17.40;88.70
32506;DHT22;18955;51.224;8.482;2023-08-20T06:23:40;17.40;88.60
32506;DHT22;18955;51.224;8.482;2023-08-20T06:26:06;17.40;88.60
32506;DHT22;18955;51.224;8.482;2023-08-20T06:28:32;17.40;88.60
32506;DHT22;18955;51.224;8.482;2023-08-20T06:30:58;17.40;88.60
32506;DHT22;18955;51.224;8.482;2023-08-20T06:33:24;17.40;88.90
32506;DHT22;18955;51.224;8.482;2023-08-20T06:35:50;17.40;88.80
32506;DHT22;18955;51.224;8.482;2023-08-20T06:38:17;17.40;88.70
32506;DHT22;18955;51.224;8.482;2023-08-20T06:40:43;17.50;88.80
32506;DHT22;18955;51.224;8.482;2023-08-20T06:43:09;17.50;88.70
32506;DHT22;18955;51.224;8.482;2023-08-20T06:45:35;17.50;88.60
32506;DHT22;18955;51.224;8.482;2023-08-20T06:48:01;17.60;88.70
32506;DHT22;18955;51.224;8.482;2023-08-20T06:50:27;17.60;88.70
32506;DHT22;18955;51.224;8.482;2023-08-20T06:52:54;17.70;88.50
32506;DHT22;18955;51.224;8.482;2023-08-20T06:55:20;17.70;88.30
32506;DHT22;18955;51.224;8.482;2023-08-20T06:57:46;17.70;88.20
32506;DHT22;18955;51.224;8.482;2023-08-20T07:00:12;17.70;88.40
32506;DHT22;18955;51.224;8.482;2023-08-20T07:02:38;17.70;88.40
32506;DHT22;18955;51.224;8.482;2023-08-20T07:05:05;17.80;88.30
32506;DHT22;18955;51.224;8.482;2023-08-20T07:07:31;17.80;88.30
32506;DHT22;18955;51.224;8.482;2023-08-20T07:09:57;17.80;88.00
32506;DHT22;18955;51.224;8.482;2023-08-20T07:12:23;17.90;88.10
32506;DHT22;18955;51.224;8.482;2023-08-20T07:14:49;17.90;88.30
32506;DHT22;18955;51.224;8.482;2023-08-20T07:17:16;18.00;88.50
32506;DHT22;18955;51.224;8.482;2023-08-20T07:19:42;18.00;88.30
32506;DHT22;18955;51.224;8.482;2023-08-20T07:22:08;18.10;88.10
32506;DHT22;18955;51.224;8.482;2023-08-20T07:24:35;18.10;87.90
32506;DHT22;18955;51.224;8.482;2023-08-20T07:27:01;18.20;88.30
32506;DHT22;18955;51.224;8.482;2023-08-20T07:29:29;18.20;88.40
32506;DHT22;18955;51.224;8.482;2023-08-20T07:31:56;18.30;88.60
32506;DHT22;18955;51.224;8.482;2023-08-20T07:34:23;18.30;88.80
32506;DHT22;18955;51.224;8.482;2023-08-20T07:36:49;18.40;89.10
32506;DHT22;18955;51.224;8.482;2023-08-20T07:39:15;18.40;89.50
32506;DHT22;18955;51.224;8.482;2023-08-20T07:41:42;18.40;89.10
32506;DHT22;18955;51.224;8.482;2023-08-20T07:44:08;18.40;88.90
32506;DHT22;18955;51.224;8.482;2023-08-20T07:46:34;18.40;89.60
32506;DHT22;18955;51.224;8.482;2023-08-20T07:49:00;18.40;90.00
32506;DHT22;18955;51.224;8.482;2023-08-20T07:51:26;18.40;90.00
32506;DHT22;18955;51.224;8.482;2023-08-20T07:53:52;18.40;90.00
32506;DHT22;18955;51.224;8.482;2023-08-20T07:56:19;18.40;90.10
32506;DHT22;18955;51.224;8.482;2023-08-20T07:58:45;18.40;90.20
32506;DHT22;18955;51.224;8.482;2023-08-20T08:01:11;18.40;90.30
32506;DHT22;18955;51.224;8.482;2023-08-20T08:03:40;18.40;90.00
32506;DHT22;18955;51.224;8.482;2023-08-20T08:06:06;18.40;89.70
32506;DHT22;18955;51.224;8.482;2023-08-20T08:08:32;18.50;89.80
32506;DHT22;18955;51.224;8.482;2023-08-20T08:10:58;18.50;90.10
32506;DHT22;18955;51.224;8.482;2023-08-20T08:13:25;18.50;90.00
32506;DHT22;18955;51.224;8.482;2023-08-20T08:15:51;18.60;89.90
32506;DHT22;18955;51.224;8.482;2023-08-20T08:18:18;18.60;89.70
32506;DHT22;18955;51.224;8.482;2023-08-20T08:20:45;18.60;90.10
32506;DHT22;18955;51.224;8.482;2023-08-20T08:23:11;18.60;90.10
32506;DHT22;18955;51.224;8.482;2023-08-20T08:25:38;18.70;90.00
32506;DHT22;18955;51.224;8.482;2023-08-20T08:28:05;18.70;90.40
32506;DHT22;18955;51.224;8.482;2023-08-20T08:30:31;18.80;90.80
32506;DHT22;18955;51.224;8.482;2023-08-20T08:32:57;18.80;91.20
32506;DHT22;18955;51.224;8.482;2023-08-20T08:35:24;18.80;91.10
32506;DHT22;18955;51.224;8.482;2023-08-20T08:37:50;18.90;91.20
32506;DHT22;18955;51.224;8.482;2023-08-20T08:40:16;18.90;91.30
32506;DHT22;18955;51.224;8.482;2023-08-20T08:42:43;18.90;91.40
32506;DHT22;18955;51.224;8.482;2023-08-20T08:45:12;19.00;91.40
32506;DHT22;18955;51.224;8.482;2023-08-20T08:47:39;19.00;91.20
32506;DHT22;18955;51.224;8.482;2023-08-20T08:50:06;19.10;91.10
32506;DHT22;18955;51.224;8.482;2023-08-20T08:52:33;19.10;91.20
32506;DHT22;18955;51.224;8.482;2023-08-20T08:55:01;19.10;91.40
32506;DHT22;18955;51.224;8.482;2023-08-20T08:57:27;19.10;91.20
32506;DHT22;18955;51.224;8.482;2023-08-20T08:59:53;19.10;91.50
32506;DHT22;18955;51.224;8.482;2023-08-20T09:02:20;19.20;91.50
32506;DHT22;18955;51.224;8.482;2023-08-20T09:04:46;19.20;91.70
32506;DHT22;18955;51.224;8.482;2023-08-20T09:07:13;19.20;91.20
32506;DHT22;18955;51.224;8.482;2023-08-20T09:09:44;19.20;91.10
32506;DHT22;18955;51.224;8.482;2023-08-20T09:12:18;19.20;91.30
32506;DHT22;18955;51.224;8.482;2023-08-20T09:14:49;19.20;91.40
32506;DHT22;18955;51.224;8.482;2023-08-20T09:17:16;19.30;91.60
32506;DHT22;18955;51.224;8.482;2023-08-20T09:19:44;19.30;91.70
32506;DHT22;18955;51.224;8.482;2023-08-20T09:22:14;19.30;91.70
32506;DHT22;18955;51.224;8.482;2023-08-20T09:24:52;19.30;91.30
32506;DHT22;18955;51.224;8.482;2023-08-20T09:27:18;19.30;91.10
32506;DHT22;18955;51.224;8.482;2023-08-20T09:29:46;19.20;91.00
32506;DHT22;18955;51.224;8.482;2023-08-20T09:34:47;19.30;91.10
32506;DHT22;18955;51.224;8.482;2023-08-20T09:37:14;19.30;91.20
32506;DHT22;18955;51.224;8.482;2023-08-20T09:39:41;19.30;91.10
32506;DHT22;18955;51.224;8.482;2023-08-20T09:42:08;19.40;91.10
32506;DHT22;18955;51.224;8.482;2023-08-20T09:44:40;19.30;91.10
32506;DHT22;18955;51.224;8.482;2023-08-20T09:47:10;19.40;90.90
32506;DHT22;18955;51.224;8.482;2023-08-20T09:49:42;19.40;90.70
32506;DHT22;18955;51.224;8.482;2023-08-20T09:52:10;19.40;90.80
32506;DHT22;18955;51.224;8.482;2023-08-20T09:55:08;19.40;91.10
32506;DHT22;18955;51.224;8.482;2023-08-20T09:57:39;19.40;90.80
32506;DHT22;18955;51.224;8.482;2023-08-20T10:00:07;19.50;90.90
32506;DHT22;18955;51.224;8.482;2023-08-20T10:02:41;19.50;90.90
32506;DHT22;18955;51.224;8.482;2023-08-20T10:05:11;19.50;90.90
32506;DHT22;18955;51.224;8.482;2023-08-20T10:07:38;19.50;90.70
32506;DHT22;18955;51.224;8.482;2023-08-20T10:10:09;19.50;90.60
32506;DHT22;18955;51.224;8.482;2023-08-20T10:12:37;19.60;90.70
32506;DHT22;18955;51.224;8.482;2023-08-20T10:15:08;19.60;90.90
32506;DHT22;18955;51.224;8.482;2023-08-20T10:17:38;19.60;90.70
32506;DHT22;18955;51.224;8.482;2023-08-20T10:20:05;19.60;90.80
32506;DHT22;18955;51.224;8.482;2023-08-20T10:22:43;19.60;90.70
32506;DHT22;18955;51.224;8.482;2023-08-20T10:25:25;19.60;90.80
32506;DHT22;18955;51.224;8.482;2023-08-20T10:27:52;19.60;90.60
32506;DHT22;18955;51.224;8.482;2023-08-20T10:30:24;19.60;90.50
32506;DHT22;18955;51.224;8.482;2023-08-20T10:32:56;19.70;90.50
32506;DHT22;18955;51.224;8.482;2023-08-20T10:35:27;19.70;90.60
32506;DHT22;18955;51.224;8.482;2023-08-20T10:38:03;19.70;90.60
32506;DHT22;18955;51.224;8.482;2023-08-20T10:46:20;19.80;90.70
32506;DHT22;18955;51.224;8.482;2023-08-20T10:48:54;19.80;90.60
32506;DHT22;18955;51.224;8.482;2023-08-20T10:51:30;19.80;90.60
32506;DHT22;18955;51.224;8.482;2023-08-20T10:54:07;19.80;90.70
32506;DHT22;18955;51.224;8.482;2023-08-20T10:56:43;19.80;90.70
32506;DHT22;18955;51.224;8.482;2023-08-20T11:01:52;19.80;90.80
32506;DHT22;18955;51.224;8.482;2023-08-20T11:04:20;19.80;90.70
32506;DHT22;18955;51.224;8.482;2023-08-20T11:06:52;19.90;90.60
32506;DHT22;18955;51.224;8.482;2023-08-20T11:09:20;19.90;90.70
32506;DHT22;18955;51.224;8.482;2023-08-20T11:11:47;19.90;90.70
32506;DHT22;18955;51.224;8.482;2023-08-20T11:14:14;20.00;90.60
32506;DHT22;18955;51.224;8.482;2023-08-20T11:16:41;20.00;90.50
32506;DHT22;18955;51.224;8.482;2023-08-20T11:19:08;20.00;90.50
32506;DHT22;18955;51.224;8.482;2023-08-20T11:21:35;20.10;90.60
32506;DHT22;18955;51.224;8.482;2023-08-20T11:24:02;20.10;90.40
32506;DHT22;18955;51.224;8.482;2023-08-20T11:26:28;20.10;90.60
32506;DHT22;18955;51.224;8.482;2023-08-20T11:28:55;20.10;90.80
32506;DHT22;18955;51.224;8.482;2023-08-20T11:31:21;20.10;90.60
32506;DHT22;18955;51.224;8.482;2023-08-20T11:33:49;20.10;90.60
32506;DHT22;18955;51.224;8.482;2023-08-20T11:36:16;20.10;90.50
32506;DHT22;18955;51.224;8.482;2023-08-20T11:38:52;20.20;90.70
32506;DHT22;18955;51.224;8.482;2023-08-20T11:41:23;20.20;90.50
32506;DHT22;18955;51.224;8.482;2023-08-20T11:43:51;20.20;90.60
32506;DHT22;18955;51.224;8.482;2023-08-20T11:46:22;20.20;90.50
32506;DHT22;18955;51.224;8.482;2023-08-20T11:49:05;20.20;90.50
32506;DHT22;18955;51.224;8.482;2023-08-20T11:51:40;20.20;90.40
32506;DHT22;18955;51.224;8.482;2023-08-20T11:54:17;20.30;90.50
32506;DHT22;18955;51.224;8.482;2023-08-20T11:56:44;20.30;90.50
32506;DHT22;18955;51.224;8.482;2023-08-20T11:59:12;20.30;90.40
32506;DHT22;18955;51.224;8.482;2023-08-20T12:01:39;20.30;90.40
32506;DHT22;18955;51.224;8.482;2023-08-20T12:04:07;20.30;90.40
32506;DHT22;18955;51.224;8.482;2023-08-20T12:06:35;20.30;90.30
32506;DHT22;18955;51.224;8.482;2023-08-20T12:09:12;20.30;90.60
32506;DHT22;18955;51.224;8.482;2023-08-20T12:11:49;20.40;90.30
32506;DHT22;18955;51.224;8.482;2023-08-20T12:14:17;20.40;90.20
32506;DHT22;18955;51.224;8.482;2023-08-20T12:16:43;20.40;90.10
32506;DHT22;18955;51.224;8.482;2023-08-20T12:19:09;20.40;90.10
32506;DHT22;18955;51.224;8.482;2023-08-20T12:21:35;20.50;90.00
32506;DHT22;18955;51.224;8.482;2023-08-20T12:24:02;20.40;90.00
32506;DHT22;18955;51.224;8.482;2023-08-20T12:26:30;20.50;90.00
32506;DHT22;18955;51.224;8.482;2023-08-20T12:28:56;20.50;89.30
32506;DHT22;18955;51.224;8.482;2023-08-20T12:31:22;20.50;89.30
32506;DHT22;18955;51.224;8.482;2023-08-20T12:33:49;20.50;89.10
32506;DHT22;18955;51.224;8.482;2023-08-20T12:36:15;20.60;89.10
32506;DHT22;18955;51.224;8.482;2023-08-20T12:38:41;20.60;89.00
32506;DHT22;18955;51.224;8.482;2023-08-20T12:41:07;20.60;89.10
32506;DHT22;18955;51.224;8.482;2023-08-20T12:43:34;20.60;89.10
32506;DHT22;18955;51.224;8.482;2023-08-20T12:46:00;20.60;88.80
32506;DHT22;18955;51.224;8.482;2023-08-20T12:48:26;20.60;88.80
32506;DHT22;18955;51.224;8.482;2023-08-20T12:50:52;20.60;89.00
32506;DHT22;18955;51.224;8.482;2023-08-20T12:53:18;20.60;88.80
32506;DHT22;18955;51.224;8.482;2023-08-20T12:55:45;20.70;89.10
32506;DHT22;18955;51.224;8.482;2023-08-20T12:58:11;20.70;88.80
32506;DHT22;18955;51.224;8.482;2023-08-20T13:00:37;20.70;88.80
32506;DHT22;18955;51.224;8.482;2023-08-20T13:03:04;20.70;88.70
32506;DHT22;18955;51.224;8.482;2023-08-20T13:05:30;20.70;88.60
32506;DHT22;18955;51.224;8.482;2023-08-20T13:07:57;20.70;88.60
32506;DHT22;18955;51.224;8.482;2023-08-20T13:10:23;20.80;88.50
32506;DHT22;18955;51.224;8.482;2023-08-20T13:12:51;20.80;88.40
32506;DHT22;18955;51.224;8.482;2023-08-20T13:15:20;20.80;88.20
32506;DHT22;18955;51.224;8.482;2023-08-20T13:17:48;20.80;88.20
32506;DHT22;18955;51.224;8.482;2023-08-20T13:20:15;20.80;88.20
32506;DHT22;18955;51.224;8.482;2023-08-20T13:22:48;20.80;88.30
32506;DHT22;18955;51.224;8.482;2023-08-20T13:25:15;20.80;88.40
32506;DHT22;18955;51.224;8.482;2023-08-20T13:27:41;20.80;88.70
32506;DHT22;18955;51.224;8.482;2023-08-20T13:30:08;20.80;88.80
32506;DHT22;18955;51.224;8.482;2023-08-20T13:32:35;20.80;88.80
32506;DHT22;18955;51.224;8.482;2023-08-20T13:35:02;20.80;88.80
32506;DHT22;18955;51.224;8.482;2023-08-20T13:37:31;20.90;88.90
32506;DHT22;18955;51.224;8.482;2023-08-20T13:39:57;20.90;88.80
32506;DHT22;18955;51.224;8.482;2023-08-20T13:42:24;21.00;88.70
32506;DHT22;18955;51.224;8.482;2023-08-20T13:44:50;21.00;88.40
32506;DHT22;18955;51.224;8.482;2023-08-20T13:47:16;21.00;88.40
32506;DHT22;18955;51.224;8.482;2023-08-20T13:49:42;21.00;88.70
32506;DHT22;18955;51.224;8.482;2023-08-20T13:52:12;21.00;88.40
32506;DHT22;18955;51.224;8.482;2023-08-20T13:54:38;21.00;88.40
32506;DHT22;18955;51.224;8.482;2023-08-20T13:57:04;21.00;88.30
32506;DHT22;18955;51.224;8.482;2023-08-20T13:59:31;21.00;88.50
32506;DHT22;18955;51.224;8.482;2023-08-20T14:01:58;21.00;88.50
32506;DHT22;18955;51.224;8.482;2023-08-20T14:04:24;21.00;88.60
32506;DHT22;18955;51.224;8.482;2023-08-20T14:06:51;21.00;88.80
32506;DHT22;18955;51.224;8.482;2023-08-20T14:09:17;21.00;88.80
32506;DHT22;18955;51.224;8.482;2023-08-20T14:11:45;21.10;88.90
32506;DHT22;18955;51.224;8.482;2023-08-20T14:14:11;21.10;89.00
32506;DHT22;18955;51.224;8.482;2023-08-20T14:16:38;21.10;89.10
32506;DHT22;18955;51.224;8.482;2023-08-20T14:19:04;21.10;89.20
32506;DHT22;18955;51.224;8.482;2023-08-20T14:21:30;21.10;89.20
32506;DHT22;18955;51.224;8.482;2023-08-20T14:23:56;21.10;89.30
32506;DHT22;18955;51.224;8.482;2023-08-20T14:26:23;21.10;89.30
32506;DHT22;18955;51.224;8.482;2023-08-20T14:28:49;21.10;89.40
32506;DHT22;18955;51.224;8.482;2023-08-20T14:31:15;21.20;89.30
32506;DHT22;18955;51.224;8.482;2023-08-20T14:33:42;21.20;89.20
32506;DHT22;18955;51.224;8.482;2023-08-20T14:36:08;21.20;89.30
32506;DHT22;18955;51.224;8.482;2023-08-20T14:38:34;21.20;89.40
32506;DHT22;18955;51.224;8.482;2023-08-20T14:41:01;21.20;89.40
32506;DHT22;18955;51.224;8.482;2023-08-20T14:43:28;21.20;89.50
32506;DHT22;18955;51.224;8.482;2023-08-20T14:45:54;21.20;89.50
32506;DHT22;18955;51.224;8.482;2023-08-20T14:48:21;21.20;89.60
32506;DHT22;18955;51.224;8.482;2023-08-20T14:50:47;21.30;89.60
32506;DHT22;18955;51.224;8.482;2023-08-20T14:53:14;21.30;89.50
32506;DHT22;18955;51.224;8.482;2023-08-20T14:55:40;21.30;89.40
32506;DHT22;18955;51.224;8.482;2023-08-20T14:58:06;21.30;89.30
32506;DHT22;18955;51.224;8.482;2023-08-20T15:00:33;21.30;89.50
32506;DHT22;18955;51.224;8.482;2023-08-20T15:02:59;21.30;89.40
32506;DHT22;18955;51.224;8.482;2023-08-20T15:05:26;21.30;89.50
32506;DHT22;18955;51.224;8.482;2023-08-20T15:07:53;21.40;89.50
32506;DHT22;18955;51.224;8.482;2023-08-20T15:10:19;21.40;89.30
32506;DHT22;18955;51.224;8.482;2023-08-20T15:12:46;21.50;89.10
32506;DHT22;18955;51.224;8.482;2023-08-20T15:15:12;21.50;89.00
32506;DHT22;18955;51.224;8.482;2023-08-20T15:17:38;21.50;89.00
32506;DHT22;18955;51.224;8.482;2023-08-20T15:20:05;21.50;89.00
32506;DHT22;18955;51.224;8.482;2023-08-20T15:22:34;21.60;89.00
32506;DHT22;18955;51.224;8.482;2023-08-20T15:25:00;21.60;88.80
32506;DHT22;18955;51.224;8.482;2023-08-20T15:27:26;21.70;89.10
32506;DHT22;18955;51.224;8.482;2023-08-20T15:29:53;21.70;89.10
32506;DHT22;18955;51.224;8.482;2023-08-20T15:32:19;21.60;89.00
32506;DHT22;18955;51.224;8.482;2023-08-20T15:34:47;21.60;89.00
32506;DHT22;18955;51.224;8.482;2023-08-20T15:37:13;21.60;89.30
32506;DHT22;18955;51.224;8.482;2023-08-20T15:39:39;21.60;89.30
32506;DHT22;18955;51.224;8.482;2023-08-20T15:42:05;21.60;89.50
32506;DHT22;18955;51.224;8.482;2023-08-20T15:44:32;21.60;89.50